Time;durP1;ratioP1;P1;durP2;ratioP2;P2;SDS_P1;SDS_P2;PMS_P1;PMS_P2;Temp;Humidity;BMP_temperature;BMP_pressure;BME280_temperature;BME280_humidity;BME280_pressure;Samples;Min_cycle;Max_cycle;Signal;HPM_P1;HPM_P2
2022/03/07 00:01:37;;;;;;;7.53;2.58;;;3.20;99.90;;;;;;5149636;27;20043;-71
2022/03/07 00:04:03;;;;;;;5.65;2.20;;;3.20;99.90;;;;;;5130453;27;20076;-72
2022/03/07 00:06:29;;;;;;;5.50;2.53;;;3.20;99.90;;;;;;5130313;27;20035;-72
2022/03/07 00:08:55;;;;;;;7.13;2.40;;;3.10;99.90;;;;;;5131706;27;20125;-72
2022/03/07 00:11:21;;;;;;;7.05;2.70;;;3.10;99.90;;;;;;5131134;27;20042;-73
2022/03/07 00:13:48;;;;;;;4.55;2.28;;;4.70;99.90;;;;;;5149406;27;20047;-72
2022/03/07 00:16:14;;;;;;;7.30;2.60;;;3.00;99.90;;;;;;5133182;27;20038;-73
2022/03/07 00:18:40;;;;;;;6.03;2.20;;;3.00;99.90;;;;;;5111845;27;20101;-72
2022/03/07 00:21:07;;;;;;;7.53;2.70;;;2.90;99.90;;;;;;5149881;27;20047;-72
2022/03/07 00:23:33;;;;;;;6.05;2.20;;;2.90;99.90;;;;;;5130503;27;20042;-72
2022/03/07 00:25:59;;;;;;;4.43;2.17;;;3.60;99.90;;;;;;5095121;27;20047;-72
2022/03/07 00:28:24;;;;;;;4.60;2.20;;;2.90;99.90;;;;;;5114582;27;20491;-72
2022/03/07 00:30:50;;;;;;;8.43;3.08;;;2.80;99.90;;;;;;5131236;27;20031;-72
2022/03/07 00:33:16;;;;;;;5.65;2.50;;;2.80;99.90;;;;;;5128943;27;20068;-73
2022/03/07 00:35:42;;;;;;;6.00;2.75;;;2.80;99.90;;;;;;5130171;27;20177;-72
2022/03/07 00:38:08;;;;;;;5.32;2.53;;;2.70;99.90;;;;;;5150177;27;20043;-72
2022/03/07 00:40:34;;;;;;;8.65;2.53;;;2.70;99.90;;;;;;5132753;27;20060;-73
2022/03/07 00:43:00;;;;;;;4.93;2.40;;;2.80;99.90;;;;;;5150303;27;20038;-72
2022/03/07 00:45:26;;;;;;;6.68;2.53;;;2.70;99.90;;;;;;5125654;28;20054;-72
2022/03/07 00:47:52;;;;;;;8.55;2.85;;;2.70;99.90;;;;;;5143065;27;20042;-72
2022/03/07 00:50:17;;;;;;;5.82;2.58;;;2.70;99.90;;;;;;5131359;27;20073;-72
2022/03/07 00:52:43;;;;;;;6.38;2.83;;;2.30;99.90;;;;;;5147896;27;20066;-72
2022/03/07 00:55:09;;;;;;;5.30;2.50;;;2.70;99.90;;;;;;5130349;27;20096;-72
2022/03/07 00:57:35;;;;;;;5.90;2.58;;;2.70;99.90;;;;;;5130424;27;20043;-72
2022/03/07 01:00:01;;;;;;;8.65;2.97;;;2.70;99.90;;;;;;5130971;27;20104;-72
2022/03/07 01:02:26;;;;;;;5.78;2.60;;;2.60;99.90;;;;;;5146374;27;20110;-72
2022/03/07 01:04:55;;;;;;;7.80;2.45;;;2.60;99.90;;;;;;5144003;27;20034;-72
2022/03/07 01:07:21;;;;;;;5.93;2.92;;;2.60;99.90;;;;;;5132323;27;20056;-71
2022/03/07 01:09:47;;;;;;;7.40;2.60;;;2.50;99.90;;;;;;5135554;27;20426;-71
2022/03/07 01:12:13;;;;;;;6.03;2.75;;;2.60;99.90;;;;;;5135393;27;20131;-72
2022/03/07 01:14:39;;;;;;;8.52;3.03;;;2.60;99.90;;;;;;5153031;27;20073;-72
2022/03/07 01:17:05;;;;;;;7.88;3.05;;;2.60;99.90;;;;;;5155045;27;20046;-72
2022/03/07 01:19:31;;;;;;;10.20;3.13;;;2.40;99.90;;;;;;5154291;27;20030;-72
2022/03/07 01:21:56;;;;;;;6.03;2.95;;;2.60;99.90;;;;;;5118348;27;20061;-72
2022/03/07 01:24:22;;;;;;;8.55;3.20;;;2.50;99.90;;;;;;5117819;27;20091;-72
2022/03/07 01:26:48;;;;;;;6.68;2.97;;;2.50;99.90;;;;;;5134562;27;20367;-72
2022/03/07 01:29:14;;;;;;;7.93;3.03;;;2.50;99.90;;;;;;5133247;27;20030;-72
2022/03/07 01:31:40;;;;;;;7.88;3.33;;;2.50;99.90;;;;;;5152681;27;20062;-71
2022/03/07 01:34:06;;;;;;;8.15;2.78;;;1.90;99.90;;;;;;5151605;27;20548;-73
2022/03/07 01:36:32;;;;;;;6.30;3.08;;;2.40;99.90;;;;;;5141202;27;20043;-71
2022/03/07 01:38:57;;;;;;;7.20;3.90;;;2.40;99.90;;;;;;5136648;27;20095;-71
2022/03/07 01:41:23;;;;;;;8.25;2.60;;;2.30;99.90;;;;;;5151637;27;20125;-71
2022/03/07 01:43:49;;;;;;;6.07;2.95;;;2.30;99.90;;;;;;5151187;27;20083;-71
2022/03/07 01:46:15;;;;;;;7.07;3.03;;;2.20;99.90;;;;;;5153125;27;20406;-71
2022/03/07 01:48:40;;;;;;;6.95;3.05;;;2.30;99.90;;;;;;5116883;27;20121;-72
2022/03/07 01:51:10;;;;;;;6.18;3.20;;;2.30;99.90;;;;;;5152307;27;20070;-71
2022/03/07 01:53:37;;;;;;;10.13;3.20;;;2.10;99.90;;;;;;5115994;27;20483;-71
2022/03/07 01:56:04;;;;;;;5.63;3.03;;;2.20;99.90;;;;;;5134610;27;20035;-72
2022/03/07 01:58:29;;;;;;;6.95;2.72;;;2.20;99.90;;;;;;5128637;27;20093;-72
2022/03/07 02:00:55;;;;;;;7.68;3.67;;;2.20;99.90;;;;;;5148302;27;20075;-72
2022/03/07 02:03:21;;;;;;;7.30;3.08;;;2.20;99.90;;;;;;5111997;27;20084;-72
2022/03/07 02:05:48;;;;;;;7.15;3.20;;;2.10;99.90;;;;;;5114344;27;20153;-71
2022/03/07 02:08:14;;;;;;;8.60;3.35;;;2.20;99.90;;;;;;5130257;27;20039;-72
2022/03/07 02:10:42;;;;;;;7.03;3.55;;;2.20;99.90;;;;;;5112512;27;20222;-72
2022/03/07 02:13:12;;;;;;;6.60;3.78;;;2.30;99.90;;;;;;5129664;27;20051;-72
2022/03/07 02:15:37;;;;;;;6.88;3.58;;;2.10;99.90;;;;;;5124178;27;20395;-72
2022/03/07 02:18:04;;;;;;;6.13;3.08;;;2.10;99.90;;;;;;5127727;27;20051;-72
2022/03/07 02:20:29;;;;;;;7.15;3.90;;;2.10;99.90;;;;;;5130994;27;20097;-72
2022/03/07 02:22:55;;;;;;;10.40;4.22;;;2.10;99.90;;;;;;5131397;27;20467;-72
2022/03/07 02:25:21;;;;;;;7.53;3.33;;;2.00;99.90;;;;;;5131094;27;20140;-72
2022/03/07 02:27:46;;;;;;;6.50;3.55;;;2.00;99.90;;;;;;5131064;27;20032;-72
2022/03/07 02:30:12;;;;;;;8.38;3.80;;;1.90;99.90;;;;;;5118301;27;20039;-73
2022/03/07 02:32:40;;;;;;;8.07;4.00;;;2.30;99.90;;;;;;5123000;27;20047;-71
2022/03/07 02:35:06;;;;;;;5.78;3.50;;;1.90;99.90;;;;;;5130326;27;20398;-72
2022/03/07 02:37:33;;;;;;;9.15;3.92;;;1.90;99.90;;;;;;5145869;27;20134;-73
2022/03/07 02:39:59;;;;;;;9.15;3.97;;;1.80;99.90;;;;;;5129197;27;20051;-72
2022/03/07 02:42:28;;;;;;;8.80;3.88;;;1.80;99.90;;;;;;5112909;27;20055;-72
2022/03/07 02:44:54;;;;;;;8.27;3.90;;;1.70;99.90;;;;;;5131442;27;20043;-72
2022/03/07 02:47:19;;;;;;;7.50;3.80;;;2.00;99.90;;;;;;5124647;27;20044;-71
2022/03/07 02:49:45;;;;;;;8.02;3.70;;;1.70;99.90;;;;;;5136985;27;20398;-72
2022/03/07 02:52:10;;;;;;;7.43;4.07;;;1.70;99.90;;;;;;5129457;27;20524;-71
2022/03/07 02:54:38;;;;;;;6.40;3.75;;;1.70;99.90;;;;;;5128590;27;20101;-74
2022/03/07 02:57:04;;;;;;;10.50;4.00;;;1.70;99.90;;;;;;5129156;27;20081;-73
2022/03/07 02:59:29;;;;;;;6.68;3.53;;;1.70;99.90;;;;;;5128363;28;20051;-73
2022/03/07 03:01:55;;;;;;;12.23;3.85;;;1.60;99.90;;;;;;5127049;28;20050;-72
2022/03/07 03:04:21;;;;;;;6.90;4.07;;;1.60;99.90;;;;;;5128806;28;20051;-72
2022/03/07 03:06:47;;;;;;;8.05;3.72;;;1.50;99.90;;;;;;5127810;28;20529;-72
2022/03/07 03:09:12;;;;;;;8.35;4.07;;;1.50;99.90;;;;;;5144907;27;20097;-72
2022/03/07 03:11:38;;;;;;;8.40;4.22;;;1.40;99.90;;;;;;5128211;28;20510;-72
2022/03/07 03:14:06;;;;;;;6.75;4.00;;;1.40;99.90;;;;;;5145078;27;20360;-72
2022/03/07 03:16:32;;;;;;;7.32;4.15;;;1.40;99.90;;;;;;5127075;28;20047;-72
2022/03/07 03:18:58;;;;;;;6.88;4.07;;;0.90;99.90;;;;;;5128052;27;20436;-72
2022/03/07 03:21:24;;;;;;;10.07;4.13;;;2.50;99.90;;;;;;5127123;28;20042;-72
2022/03/07 03:23:50;;;;;;;6.85;4.20;;;1.30;99.90;;;;;;5127507;28;20047;-72
2022/03/07 03:26:16;;;;;;;9.13;4.22;;;1.30;99.90;;;;;;5127894;28;20043;-73
2022/03/07 03:28:42;;;;;;;6.60;3.97;;;1.20;99.90;;;;;;5109246;28;20043;-72
2022/03/07 03:31:11;;;;;;;8.55;4.78;;;1.30;99.90;;;;;;5127887;27;20146;-73
2022/03/07 03:33:38;;;;;;;8.50;4.20;;;1.20;99.90;;;;;;5110843;28;20051;-72
2022/03/07 03:36:04;;;;;;;10.15;4.00;;;1.20;99.90;;;;;;5129289;28;20142;-72
2022/03/07 03:38:29;;;;;;;9.68;4.80;;;1.20;99.90;;;;;;5129805;28;20179;-73
2022/03/07 03:40:55;;;;;;;8.70;4.43;;;1.20;99.90;;;;;;5131148;28;20490;-72
2022/03/07 03:43:21;;;;;;;14.43;5.15;;;1.20;99.90;;;;;;5112975;28;20054;-73
2022/03/07 03:45:47;;;;;;;8.25;4.50;;;1.20;99.90;;;;;;5121187;28;20040;-72
2022/03/07 03:48:13;;;;;;;9.48;5.10;;;1.20;99.90;;;;;;5128420;28;20043;-72
2022/03/07 03:50:39;;;;;;;9.48;4.75;;;2.70;99.90;;;;;;5129338;28;20520;-72
2022/03/07 03:53:04;;;;;;;10.18;5.10;;;1.10;99.90;;;;;;5130116;27;20383;-72
2022/03/07 03:55:30;;;;;;;9.32;5.03;;;1.10;99.90;;;;;;5125098;28;20100;-72
2022/03/07 03:57:56;;;;;;;9.93;4.90;;;1.20;99.90;;;;;;5084301;27;1078970;-72
2022/03/07 04:00:23;;;;;;;8.90;5.18;;;1.10;99.90;;;;;;5145531;27;20125;-72
2022/03/07 04:02:50;;;;;;;9.88;5.15;;;1.20;99.90;;;;;;5126624;27;20205;-72
2022/03/07 04:05:17;;;;;;;9.80;5.00;;;1.10;99.90;;;;;;5130543;27;20047;-72
2022/03/07 04:07:43;;;;;;;8.00;5.20;;;1.20;99.90;;;;;;5128440;27;20376;-72
2022/03/07 04:10:10;;;;;;;8.00;5.15;;;1.10;99.90;;;;;;5128216;27;20046;-72
2022/03/07 04:12:36;;;;;;;9.77;5.53;;;1.00;99.90;;;;;;5125660;27;20043;-71
2022/03/07 04:15:03;;;;;;;10.20;5.05;;;1.00;99.90;;;;;;5129902;27;20043;-73
2022/03/07 04:17:29;;;;;;;11.50;5.50;;;1.10;99.90;;;;;;5111181;27;20084;-73
2022/03/07 04:19:55;;;;;;;8.93;5.07;;;1.00;99.90;;;;;;5127726;27;20467;-72
2022/03/07 04:22:20;;;;;;;8.73;5.10;;;1.00;99.90;;;;;;5129166;27;20043;-72
2022/03/07 04:24:46;;;;;;;13.07;6.07;;;1.00;99.90;;;;;;5123189;27;20416;-72
2022/03/07 04:27:12;;;;;;;9.02;5.40;;;0.90;99.90;;;;;;5113713;27;20510;-72
2022/03/07 04:29:37;;;;;;;11.48;6.22;;;0.90;99.90;;;;;;5135542;27;20155;-73
2022/03/07 04:32:03;;;;;;;9.82;6.03;;;1.00;99.90;;;;;;5119729;27;20454;-73
2022/03/07 04:34:29;;;;;;;10.55;5.47;;;1.00;99.90;;;;;;5106024;28;20100;-71
2022/03/07 04:36:55;;;;;;;10.07;5.47;;;0.90;99.90;;;;;;5127399;27;20027;-71
2022/03/07 04:39:21;;;;;;;10.57;5.82;;;0.90;99.90;;;;;;5128916;28;20122;-71
2022/03/07 04:41:47;;;;;;;10.18;5.80;;;0.90;99.90;;;;;;5126420;27;20434;-72
2022/03/07 04:44:13;;;;;;;11.68;6.00;;;0.80;99.90;;;;;;5128594;27;20070;-72
2022/03/07 04:46:39;;;;;;;12.52;6.30;;;0.80;99.90;;;;;;5145522;27;20133;-72
2022/03/07 04:49:05;;;;;;;11.40;5.63;;;0.80;99.90;;;;;;5128334;28;20053;-72
2022/03/07 04:51:30;;;;;;;10.63;5.78;;;0.80;99.90;;;;;;5144564;27;20418;-72
2022/03/07 04:53:56;;;;;;;14.07;6.07;;;0.70;99.90;;;;;;5126586;28;20043;-72
2022/03/07 04:56:22;;;;;;;10.30;6.35;;;0.60;99.90;;;;;;5128491;28;20049;-72
2022/03/07 04:58:48;;;;;;;12.98;6.38;;;2.10;99.90;;;;;;5148585;27;20540;-72
2022/03/07 05:01:14;;;;;;;11.77;6.03;;;0.60;99.90;;;;;;5130550;27;20491;-72
2022/03/07 05:03:40;;;;;;;12.55;6.35;;;0.70;99.90;;;;;;5147819;27;20050;-73
2022/03/07 05:06:08;;;;;;;10.77;6.10;;;2.10;99.90;;;;;;5149582;27;20035;-72
2022/03/07 05:08:34;;;;;;;12.48;6.28;;;2.10;99.90;;;;;;5148139;27;20051;-73
2022/03/07 05:11:01;;;;;;;12.98;6.45;;;1.40;99.90;;;;;;5149954;27;20376;-72
2022/03/07 05:13:26;;;;;;;10.35;5.93;;;1.90;99.90;;;;;;5150372;27;20051;-72
2022/03/07 05:15:52;;;;;;;14.77;6.18;;;0.50;99.90;;;;;;5148911;27;20050;-72
2022/03/07 05:18:18;;;;;;;12.80;6.13;;;0.60;99.90;;;;;;5145300;27;20043;-72
2022/03/07 05:20:44;;;;;;;11.13;6.22;;;0.60;99.90;;;;;;5130411;27;20519;-72
2022/03/07 05:23:09;;;;;;;10.98;6.15;;;0.90;99.90;;;;;;5129493;27;20042;-72
2022/03/07 05:25:35;;;;;;;9.88;5.47;;;0.50;99.90;;;;;;5109687;28;20114;-73
2022/03/07 05:28:01;;;;;;;12.05;6.10;;;-0.20;99.90;;;;;;5123387;27;20046;-72
2022/03/07 05:30:27;;;;;;;8.63;6.30;;;0.50;99.90;;;;;;5130500;27;20396;-72
2022/03/07 05:32:53;;;;;;;11.95;5.75;;;0.50;99.90;;;;;;5126062;27;20050;-72
2022/03/07 05:35:21;;;;;;;11.88;6.70;;;0.50;99.90;;;;;;5145061;27;20371;-72
2022/03/07 05:37:48;;;;;;;11.00;6.22;;;1.20;99.90;;;;;;5129192;27;20095;-72
2022/03/07 05:40:15;;;;;;;13.05;6.45;;;0.60;99.90;;;;;;5149581;27;20055;-73
2022/03/07 05:42:41;;;;;;;10.35;5.93;;;0.00;99.90;;;;;;5147036;27;20090;-71
2022/03/07 05:45:09;;;;;;;11.40;5.93;;;1.40;99.90;;;;;;5130510;27;20047;-73
2022/03/07 05:47:35;;;;;;;14.55;6.47;;;0.50;99.90;;;;;;5128395;27;20057;-72
2022/03/07 05:50:02;;;;;;;13.95;6.35;;;0.50;99.90;;;;;;5112738;27;20054;-72
2022/03/07 05:52:28;;;;;;;11.60;5.85;;;0.40;99.90;;;;;;5129584;27;20078;-72
2022/03/07 05:54:54;;;;;;;11.70;6.53;;;0.40;99.90;;;;;;5132895;27;20069;-72
2022/03/07 05:57:20;;;;;;;10.18;6.28;;;0.40;99.90;;;;;;5132600;27;20066;-72
2022/03/07 05:59:46;;;;;;;11.90;6.07;;;0.50;99.90;;;;;;5151695;27;20402;-72
2022/03/07 06:02:12;;;;;;;12.40;5.75;;;0.50;99.90;;;;;;5151549;27;20046;-72
2022/03/07 06:04:38;;;;;;;13.02;6.05;;;0.40;99.90;;;;;;5150743;27;20043;-73
2022/03/07 06:07:03;;;;;;;9.98;6.28;;;0.40;99.90;;;;;;5116088;27;20095;-72
2022/03/07 06:09:29;;;;;;;12.40;6.03;;;0.50;99.90;;;;;;5115952;27;20047;-73
2022/03/07 06:11:55;;;;;;;11.20;6.38;;;0.40;99.90;;;;;;5132878;27;20046;-72
2022/03/07 06:14:21;;;;;;;13.52;6.28;;;0.40;99.90;;;;;;5141701;27;20395;-72
2022/03/07 06:16:46;;;;;;;12.27;6.28;;;0.50;99.90;;;;;;5145278;27;20031;-72
2022/03/07 06:19:12;;;;;;;11.40;5.68;;;0.40;99.90;;;;;;5148724;27;20090;-71
2022/03/07 06:21:38;;;;;;;10.45;5.63;;;0.40;99.90;;;;;;5132663;27;20130;-72
2022/03/07 06:24:04;;;;;;;11.38;5.50;;;0.40;99.90;;;;;;5131595;27;20038;-72
2022/03/07 06:26:29;;;;;;;9.13;5.50;;;0.50;99.90;;;;;;5151241;27;20046;-72
2022/03/07 06:28:55;;;;;;;10.18;6.18;;;0.50;99.90;;;;;;5138521;27;20039;-71
2022/03/07 06:31:21;;;;;;;9.00;5.05;;;0.50;99.90;;;;;;5149492;27;20070;-72
2022/03/07 06:33:47;;;;;;;8.95;5.97;;;0.50;99.90;;;;;;5150030;27;20378;-72
2022/03/07 06:36:12;;;;;;;10.18;5.95;;;0.50;99.90;;;;;;5145354;27;20039;-71
2022/03/07 06:38:39;;;;;;;11.13;5.65;;;0.50;99.90;;;;;;5129454;27;20047;-72
2022/03/07 06:41:06;;;;;;;12.10;5.97;;;0.60;99.90;;;;;;5132223;27;20043;-72
2022/03/07 06:43:32;;;;;;;14.35;6.10;;;0.60;99.90;;;;;;5113354;27;20082;-72
2022/03/07 06:45:58;;;;;;;11.93;5.93;;;0.70;99.90;;;;;;5132131;27;20050;-71
2022/03/07 06:48:24;;;;;;;17.15;6.88;;;0.70;99.90;;;;;;5130872;27;20042;-72
2022/03/07 06:50:50;;;;;;;12.73;6.78;;;1.40;99.90;;;;;;5132262;27;20379;-72
2022/03/07 06:53:15;;;;;;;10.23;7.13;;;1.00;99.90;;;;;;5150259;27;20082;-73
2022/03/07 06:55:41;;;;;;;11.68;7.20;;;1.30;99.90;;;;;;5131487;27;20479;-73
2022/03/07 06:58:07;;;;;;;8.77;6.15;;;1.80;99.90;;;;;;5132954;27;20046;-72
2022/03/07 07:00:33;;;;;;;12.57;6.20;;;2.60;99.90;;;;;;5114943;27;20038;-71
2022/03/07 07:02:58;;;;;;;8.98;5.82;;;3.30;99.90;;;;;;5124271;27;20035;-72
2022/03/07 07:05:25;;;;;;;8.00;5.30;;;4.60;99.90;;;;;;5150344;27;20091;-72
2022/03/07 07:07:51;;;;;;;8.73;4.65;;;5.50;99.90;;;;;;5148261;27;20069;-72
2022/03/07 07:10:20;;;;;;;10.90;5.00;;;6.20;99.90;;;;;;5151506;27;20126;-73
2022/03/07 07:12:49;;;;;;;9.90;5.32;;;6.90;99.90;;;;;;5130929;27;20510;-71
2022/03/07 07:15:16;;;;;;;9.38;5.45;;;7.10;99.90;;;;;;5131520;27;20053;-71
2022/03/07 07:17:42;;;;;;;12.00;5.40;;;7.60;99.90;;;;;;5129448;27;20458;-71
2022/03/07 07:20:10;;;;;;;7.82;4.80;;;8.00;99.90;;;;;;5131802;27;20095;-71
2022/03/07 07:22:36;;;;;;;6.80;4.47;;;8.10;99.90;;;;;;5129747;27;20129;-71
2022/03/07 07:25:03;;;;;;;9.50;5.20;;;9.00;99.90;;;;;;5126664;27;20089;-71
2022/03/07 07:27:29;;;;;;;7.25;4.55;;;9.30;99.90;;;;;;5131841;27;20530;-72
2022/03/07 07:29:55;;;;;;;10.88;4.65;;;9.20;99.90;;;;;;5131266;27;20047;-71
2022/03/07 07:32:21;;;;;;;8.27;4.57;;;9.20;99.90;;;;;;5129892;27;20492;-72
2022/03/07 07:34:47;;;;;;;8.43;4.07;;;9.70;99.90;;;;;;5123661;27;20096;-75
2022/03/07 07:37:12;;;;;;;6.88;3.83;;;9.80;99.90;;;;;;5113660;27;20042;-74
2022/03/07 07:39:38;;;;;;;7.05;4.10;;;10.50;99.90;;;;;;5148879;27;20122;-72
2022/03/07 07:42:04;;;;;;;6.93;3.92;;;11.90;99.90;;;;;;5147710;27;20149;-73
2022/03/07 07:44:30;;;;;;;8.13;4.18;;;11.10;99.90;;;;;;5131161;27;20399;-73
2022/03/07 07:46:55;;;;;;;8.25;4.07;;;10.80;99.90;;;;;;5130829;27;20039;-73
2022/03/07 07:49:24;;;;;;;8.25;3.95;;;10.80;99.90;;;;;;5132044;27;20089;-73
2022/03/07 07:51:53;;;;;;;5.97;4.05;;;11.00;99.90;;;;;;5132164;27;20046;-73
2022/03/07 07:54:19;;;;;;;8.25;3.80;;;11.50;99.90;;;;;;5131232;27;20085;-73
2022/03/07 07:56:45;;;;;;;7.55;3.90;;;12.10;99.90;;;;;;5147591;27;20114;-72
2022/03/07 07:59:11;;;;;;;6.90;4.32;;;12.60;99.90;;;;;;5130617;27;20115;-72
2022/03/07 08:01:37;;;;;;;8.82;3.80;;;13.00;99.90;;;;;;5130740;27;20458;-72
2022/03/07 08:04:03;;;;;;;7.53;3.70;;;11.80;99.90;;;;;;5128724;27;20050;-72
2022/03/07 08:06:28;;;;;;;8.55;3.53;;;11.10;99.90;;;;;;5148858;27;20428;-72
2022/03/07 08:08:54;;;;;;;8.30;4.30;;;10.60;99.90;;;;;;5113908;27;20054;-71
2022/03/07 08:11:20;;;;;;;7.22;3.85;;;13.00;99.90;;;;;;5129786;27;20462;-72
2022/03/07 08:13:46;;;;;;;7.88;3.70;;;15.00;99.90;;;;;;5130304;27;20476;-74
2022/03/07 08:16:12;;;;;;;7.20;3.30;;;17.20;97.70;;;;;;5130494;27;20051;-71
2022/03/07 08:18:38;;;;;;;10.43;3.80;;;18.70;94.10;;;;;;5111807;27;20038;-71
2022/03/07 08:21:03;;;;;;;8.30;3.33;;;20.40;91.20;;;;;;5147949;27;20035;-72
2022/03/07 08:23:29;;;;;;;9.02;3.20;;;20.30;85.50;;;;;;5110464;27;20054;-71
2022/03/07 08:25:55;;;;;;;6.88;2.90;;;21.70;80.60;;;;;;5112911;27;20043;-71
2022/03/07 08:28:21;;;;;;;7.25;3.28;;;22.30;73.50;;;;;;5130237;27;20085;-70
2022/03/07 08:30:46;;;;;;;8.70;3.17;;;20.60;78.20;;;;;;5126323;27;20371;-70
2022/03/07 08:33:12;;;;;;;6.53;2.90;;;18.60;87.90;;;;;;5109354;28;20039;-70
2022/03/07 08:35:38;;;;;;;7.70;2.90;;;17.00;92.00;;;;;;5109855;27;20130;-70
2022/03/07 08:38:04;;;;;;;6.78;2.90;;;15.70;95.40;;;;;;5126228;27;20398;-70
2022/03/07 08:40:30;;;;;;;8.52;3.00;;;14.80;96.70;;;;;;5109670;28;20506;-71
2022/03/07 08:42:56;;;;;;;8.30;3.20;;;14.10;98.40;;;;;;5140397;27;20333;-72
2022/03/07 08:45:25;;;;;;;6.35;3.25;;;14.40;99.90;;;;;;5101473;27;20043;-72
2022/03/07 08:47:51;;;;;;;6.93;3.10;;;13.00;99.90;;;;;;5113492;27;20391;-71
2022/03/07 08:50:18;;;;;;;11.00;3.78;;;16.20;99.60;;;;;;5113297;27;20043;-71
2022/03/07 08:52:45;;;;;;;9.77;3.53;;;18.30;96.20;;;;;;5111257;27;20089;-71
2022/03/07 08:55:12;;;;;;;7.43;3.30;;;19.70;92.30;;;;;;5149923;27;20411;-70
2022/03/07 08:57:38;;;;;;;7.47;2.90;;;21.80;86.80;;;;;;5127861;27;20129;-70
2022/03/07 09:00:14;;;;;;;6.57;2.90;;;23.20;75.50;;;;;;5111204;28;20085;-70
2022/03/07 09:02:39;;;;;;;10.38;3.10;;;24.50;66.50;;;;;;5108016;28;20383;-70
2022/03/07 09:05:06;;;;;;;6.72;2.92;;;25.50;59.60;;;;;;5114442;27;20046;-71
2022/03/07 09:07:31;;;;;;;7.32;2.97;;;26.10;56.70;;;;;;5131113;27;20102;-71
2022/03/07 09:09:58;;;;;;;7.13;2.53;;;26.80;55.60;;;;;;5132972;27;20042;-70
2022/03/07 09:12:27;;;;;;;6.65;2.38;;;27.80;53.40;;;;;;5129772;27;20099;-70
2022/03/07 09:14:59;;;;;;;7.40;2.33;;;28.40;52.20;;;;;;5130179;27;20050;-70
2022/03/07 09:17:25;;;;;;;4.93;2.17;;;28.70;50.40;;;;;;5099808;28;20066;-70
2022/03/07 09:19:53;;;;;;;6.45;2.05;;;28.80;49.20;;;;;;5121532;27;20078;-70
2022/03/07 09:22:18;;;;;;;6.85;2.15;;;29.60;49.00;;;;;;5129676;27;20043;-71
2022/03/07 09:24:44;;;;;;;6.00;2.03;;;30.20;47.50;;;;;;5129481;27;20046;-73
2022/03/07 09:27:10;;;;;;;4.05;1.90;;;30.40;46.30;;;;;;5129721;27;20051;-70
2022/03/07 09:29:36;;;;;;;5.35;1.83;;;31.00;44.60;;;;;;5131240;27;20038;-71
2022/03/07 09:32:05;;;;;;;5.38;2.10;;;31.30;44.30;;;;;;5128580;27;20104;-70
2022/03/07 09:34:34;;;;;;;4.82;1.85;;;31.70;43.10;;;;;;5123387;27;20061;-70
2022/03/07 09:37:00;;;;;;;6.60;1.80;;;31.90;42.10;;;;;;5124932;27;20050;-70
2022/03/07 09:39:26;;;;;;;5.05;1.83;;;31.90;42.10;;;;;;5115614;27;20161;-71
2022/03/07 09:41:52;;;;;;;5.20;1.90;;;31.90;42.60;;;;;;5152345;27;20043;-70
2022/03/07 09:44:18;;;;;;;5.00;1.77;;;32.20;41.90;;;;;;5133386;27;20082;-70
2022/03/07 09:46:45;;;;;;;5.55;1.90;;;32.50;41.60;;;;;;5114318;27;20046;-72
2022/03/07 09:49:10;;;;;;;3.47;1.55;;;32.80;41.90;;;;;;5132659;27;20440;-71
2022/03/07 09:51:36;;;;;;;6.50;1.90;;;33.20;42.00;;;;;;5129585;27;20055;-70
2022/03/07 09:54:02;;;;;;;4.60;1.83;;;33.50;41.20;;;;;;5112066;27;20483;-70
2022/03/07 09:56:28;;;;;;;4.97;1.73;;;33.60;40.60;;;;;;5115924;27;20031;-70
2022/03/07 09:58:53;;;;;;;6.07;1.70;;;33.50;39.20;;;;;;5131030;27;20051;-70
2022/03/07 10:01:19;;;;;;;4.20;1.70;;;33.70;38.80;;;;;;5131660;27;20035;-69
2022/03/07 10:03:46;;;;;;;7.47;1.80;;;33.10;38.90;;;;;;5128646;27;20479;-70
2022/03/07 10:06:17;;;;;;;4.75;1.90;;;31.10;39.20;;;;;;5124336;27;20149;-71
2022/03/07 10:08:56;;;;;;;4.10;1.40;;;28.50;40.40;;;;;;5131317;27;20039;-70
2022/03/07 10:11:23;;;;;;;4.30;1.60;;;28.70;41.60;;;;;;5135104;27;20051;-71
2022/03/07 10:14:00;;;;;;;4.43;1.70;;;27.30;41.30;;;;;;5131641;27;20396;-70
2022/03/07 10:16:40;;;;;;;6.05;1.90;;;27.40;42.40;;;;;;5131943;27;20057;-71
2022/03/07 10:19:11;;;;;;;4.80;1.73;;;28.60;42.70;;;;;;5131779;27;20449;-71
2022/03/07 10:21:43;;;;;;;3.80;1.70;;;30.60;41.90;;;;;;5124991;27;20047;-71
2022/03/07 10:24:09;;;;;;;5.55;2.00;;;32.50;40.80;;;;;;5138984;27;20125;-72
2022/03/07 10:26:35;;;;;;;5.88;1.88;;;33.80;40.40;;;;;;5144676;27;20452;-71
2022/03/07 10:29:03;;;;;;;4.47;1.70;;;34.60;39.10;;;;;;5124098;27;20047;-72
2022/03/07 10:31:29;;;;;;;7.15;1.90;;;35.50;37.80;;;;;;5112848;27;20064;-71
2022/03/07 10:34:04;;;;;;;5.53;1.80;;;35.40;37.80;;;;;;5113318;27;20126;-72
2022/03/07 10:36:34;;;;;;;;;;;35.30;38.10;;;;;;5129301;27;20535;-71
2022/03/07 10:39:00;;;;;;;4.68;1.65;;;33.70;37.20;;;;;;5095036;27;20445;-71
2022/03/07 10:41:37;;;;;;;3.88;1.80;;;33.50;38.30;;;;;;5112765;27;20043;-70
2022/03/07 10:44:08;;;;;;;4.95;1.83;;;34.10;37.50;;;;;;5132587;27;20039;-70
2022/03/07 10:46:34;;;;;;;6.47;2.15;;;35.00;37.20;;;;;;5132639;27;20053;-70
2022/03/07 10:49:00;;;;;;;6.97;1.98;;;36.00;36.40;;;;;;5129619;27;20487;-70
2022/03/07 10:51:26;;;;;;;5.63;1.80;;;36.60;35.60;;;;;;5111577;27;20058;-72
2022/03/07 10:53:53;;;;;;;5.18;1.75;;;36.70;35.70;;;;;;5128234;27;20050;-72
2022/03/07 10:56:21;;;;;;;5.40;1.85;;;37.30;36.30;;;;;;5112489;27;20054;-71
2022/03/07 10:58:49;;;;;;;4.28;1.67;;;38.00;35.60;;;;;;5109959;27;20059;-70
2022/03/07 11:01:26;;;;;;;4.25;1.90;;;38.30;34.00;;;;;;5130804;27;20545;-70
2022/03/07 11:03:55;;;;;;;4.03;1.58;;;38.20;34.30;;;;;;5109905;27;20049;-70
2022/03/07 11:06:21;;;;;;;4.25;1.67;;;38.60;34.60;;;;;;5111547;27;20058;-70
2022/03/07 11:08:47;;;;;;;4.07;1.73;;;38.70;34.10;;;;;;5129781;27;20047;-70
2022/03/07 11:11:16;;;;;;;5.32;1.92;;;37.10;33.50;;;;;;5111107;27;20039;-71
2022/03/07 11:13:43;;;;;;;4.43;1.80;;;34.60;33.70;;;;;;5129360;27;20119;-71
2022/03/07 11:16:11;;;;;;;3.35;1.70;;;33.20;34.30;;;;;;5129228;27;20109;-71
2022/03/07 11:18:38;;;;;;;4.32;1.73;;;32.10;35.00;;;;;;5137818;27;20050;-71
2022/03/07 11:21:05;;;;;;;5.25;1.70;;;33.10;35.40;;;;;;5130499;27;20047;-70
2022/03/07 11:23:31;;;;;;;4.88;1.75;;;34.30;34.40;;;;;;5114724;27;20046;-70
2022/03/07 11:25:58;;;;;;;6.53;1.83;;;33.80;34.10;;;;;;5150422;27;20486;-69
2022/03/07 11:28:27;;;;;;;4.03;1.70;;;33.30;34.50;;;;;;5131998;27;20947;-76
2022/03/07 11:30:53;;;;;;;3.58;1.48;;;33.40;34.70;;;;;;5112552;27;20039;-87
2022/03/07 11:33:33;;;;;;;3.10;1.30;;;34.90;34.60;;;;;;5128545;27;20065;-88
2022/03/07 11:36:02;;;;;;;5.40;1.70;;;36.00;34.10;;;;;;5131556;27;20039;-87
2022/03/07 11:38:31;;;;;;;2.55;1.40;;;36.80;32.80;;;;;;5111847;27;20042;-87
2022/03/07 11:41:12;;;;;;;2.90;1.48;;;37.40;32.30;;;;;;5127973;27;20498;-87
2022/03/07 11:43:56;;;;;;;2.72;1.20;;;35.90;31.50;;;;;;5130625;27;20461;-86
2022/03/07 11:46:32;;;;;;;4.15;1.23;;;34.60;31.70;;;;;;5133472;27;20119;-86
2022/03/07 11:48:59;;;;;;;3.33;1.40;;;33.10;32.00;;;;;;5111516;27;20049;-87
2022/03/07 11:51:27;;;;;;;4.03;1.58;;;31.50;32.50;;;;;;5128183;27;20043;-86
2022/03/07 11:53:55;;;;;;;3.60;1.50;;;30.00;33.10;;;;;;5115237;27;20111;-85
2022/03/07 11:56:33;;;;;;;3.53;1.45;;;27.90;33.40;;;;;;5092383;27;20487;-85
2022/03/07 11:59:02;;;;;;;3.53;1.42;;;25.90;34.00;;;;;;5110732;27;20051;-85
2022/03/07 12:01:31;;;;;;;3.40;1.30;;;24.20;35.10;;;;;;5116258;27;20053;-85
2022/03/07 12:04:11;;;;;;;3.28;1.45;;;24.30;36.40;;;;;;5111840;27;20043;-85
2022/03/07 12:06:46;;;;;;;2.90;1.20;;;25.90;36.80;;;;;;5126471;27;20170;-84
2022/03/07 12:09:32;;;;;;;3.47;1.30;;;26.50;35.70;;;;;;5126702;27;20055;-85
2022/03/07 12:12:21;;;;;;;4.53;1.50;;;26.10;35.00;;;;;;5128488;27;20600;-85
2022/03/07 12:14:47;;;;;;;3.10;1.63;;;25.40;35.30;;;;;;5126054;27;20062;-85
2022/03/07 12:17:19;;;;;;;3.53;1.30;;;24.10;35.90;;;;;;5127009;27;20042;-84
2022/03/07 12:19:53;;;;;;;4.00;1.45;;;23.00;36.80;;;;;;5145743;27;20066;-85
2022/03/07 12:22:22;;;;;;;4.78;1.60;;;22.20;37.50;;;;;;5146122;27;20038;-85
2022/03/07 12:24:48;;;;;;;4.07;1.63;;;22.30;38.90;;;;;;5109908;27;20417;-85
2022/03/07 12:27:13;;;;;;;2.85;1.60;;;22.20;39.60;;;;;;5128955;27;20123;-74
2022/03/07 12:29:42;;;;;;;4.70;1.60;;;23.50;39.50;;;;;;5129094;27;20473;-73
2022/03/07 12:32:10;;;;;;;4.50;1.50;;;23.20;38.60;;;;;;5129124;27;20154;-73
2022/03/07 12:34:41;;;;;;;4.30;1.50;;;22.40;38.60;;;;;;5146065;27;20034;-73
2022/03/07 12:37:15;;;;;;;2.58;1.30;;;21.10;38.40;;;;;;5130516;27;20062;-71
2022/03/07 12:40:13;;;;;;;2.65;1.20;;;20.20;38.90;;;;;;5129057;27;20058;-73
2022/03/07 12:42:42;;;;;;;2.13;1.20;;;19.80;39.30;;;;;;5112762;27;20043;-73
2022/03/07 12:45:09;;;;;;;2.47;1.30;;;19.20;39.70;;;;;;5110486;28;20529;-72
2022/03/07 12:47:37;;;;;;;4.97;1.40;;;19.10;40.20;;;;;;5108458;28;20207;-73
2022/03/07 12:50:06;;;;;;;2.90;1.30;;;18.90;40.60;;;;;;5109786;28;20050;-73